This is the latest recevied weather packets stored in our database for station/object W6SNO-1. If no packets are shown the sender has not sent any weather packets the latest 10 day(s).
| Time | Temp. | Humidity | Pressure | Rain* | Wind** | Luminosity | Snow |
|---|---|---|---|---|---|---|---|
| 1788133548 | 78° F | 53% | 758.9 mmHg | 0 in | - | 383 W/m² | - |
| 1788133244 | 78° F | 53% | 758.9 mmHg | 0 in | - | 383 W/m² | - |
| 1788132331 | 78° F | 53% | 758.9 mmHg | 0 in | - | 437 W/m² | - |
| 1788132027 | 78° F | 53% | 759 mmHg | 0 in | - | 437 W/m² | - |
| 1788130512 | 78° F | 51% | 759.1 mmHg | 0 in | - | 519 W/m² | - |
| 1788130212 | 78° F | 51% | 759.1 mmHg | 0 in | - | 519 W/m² | - |
| 1788129910 | 80° F | 49% | 759.1 mmHg | 0 in | - | 539 W/m² | - |
| 1788129607 | 80° F | 49% | 759.1 mmHg | 0 in | - | 539 W/m² | - |
| 1788128090 | 79° F | 48% | 759.2 mmHg | 0 in | - | 613 W/m² | - |
| 1788127785 | 79° F | 48% | 759.4 mmHg | 0 in | - | 613 W/m² | - |
| 1788123535 | 78° F | 48% | 760 mmHg | 0 in | - | 723 W/m² | - |
| 1788123234 | 78° F | 48% | 760 mmHg | 0 in | - | 723 W/m² | - |
| 1788113816 | 70° F | 58% | 760.9 mmHg | 0 in | - | 628 W/m² | - |
| 1788113510 | 70° F | 58% | 760.8 mmHg | 0 in | - | 628 W/m² | - |
| 1788109563 | 64° F | 67% | 761 mmHg | 0 in | - | 252 W/m² | - |
| 1788109261 | 64° F | 67% | 760.9 mmHg | 0 in | - | 189 W/m² | - |
| 1788108956 | 63° F | 68% | 761 mmHg | 0 in | - | 110 W/m² | - |
| 1788108652 | 63° F | 68% | 760.9 mmHg | 0 in | - | 54 W/m² | - |
| 1788108348 | 62° F | 68% | 761 mmHg | 0 in | - | 61 W/m² | - |
| 1788108044 | 62° F | 68% | 761 mmHg | 0 in | - | 45 W/m² | - |
| 1788107741 | 62° F | 69% | 760.9 mmHg | 0 in | - | 52 W/m² | - |
| 1788107440 | 62° F | 69% | 760.9 mmHg | 0 in | - | 39 W/m² | - |
| 1788107131 | 61° F | 70% | 760.9 mmHg | 0 in | - | 41 W/m² | - |
| 1788106830 | 61° F | 71% | 760.9 mmHg | 0 in | - | 39 W/m² | - |
| 1788106525 | 60° F | 71% | 761 mmHg | 0 in | - | 38 W/m² | - |
* Rain latest hour (hover to see other rain measurements)
** Current wind speed in m/s (hover to see current wind gust speed)